Alessandro F — IBVQ — position and weather

sailwx.info

Track history (hours):
 
Tides and Currents Weather Stations Pressure Air Temp Water Temp Dewpoint Dewpoint Depression Visibility Wind Speed Wind Dir Waves Ship Positions

Alessandro F

Last reported at 2014-Jul-18 04:10 UTC. Time now 2014-Jul-25 20:33 UTC.
Position N 37°51' E 023°21'.

Length 100 m; draft 4.1 m.

Type: Ship. MMSI: 247046400.

Date/timePositionNaut miles runAvg speedWind from/ knotsBaromVisibWave heightAir tempDewpointWater temp
2014-Jul-18 04:10N 37°51' E 023°21'812.7
2014-Jul-18 03:33N 37°50' E 023°31'1010.4
2014-Jul-18 02:33N 37°45' E 023°42'2110.6
2014-Jul-18 00:32N 37°35' E 024°06'1812.8
2014-Jul-17 23:09N 37°46' E 024°23'1112.6
2014-Jul-17 22:16N 37°53' E 024°35'  
2014-Jul-13 21:29N 39°17' E 025°22'0 0.0
2014-Jul-13 20:29N 39°17' E 025°22'0 0.0
2014-Jul-13 17:32N 39°17' E 025°22'0 0.0
2014-Jul-13 16:32N 39°17' E 025°22'  
Track history (hours):
 
Tides and Currents Weather Stations Pressure Air Temp Water Temp Dewpoint Dewpoint Depression Visibility Wind Speed Wind Dir Waves Ship Positions

Alessandro F

Last reported at 2014-Jul-18 04:10 UTC. Time now 2014-Jul-25 20:33 UTC.
Position N 37°51' E 023°21'.

Length 100 m; draft 4.1 m.

Type: Ship. MMSI: 247046400.

Date/timePositionNaut miles runAvg speedWind from/ knotsBaromVisibWave heightAir tempDewpointWater temp
2014-Jul-18 04:10N 37°51' E 023°21'812.7
2014-Jul-18 03:33N 37°50' E 023°31'1010.4
2014-Jul-18 02:33N 37°45' E 023°42'2110.6
2014-Jul-18 00:32N 37°35' E 024°06'1812.8
2014-Jul-17 23:09N 37°46' E 024°23'1112.6
2014-Jul-17 22:16N 37°53' E 024°35'  
2014-Jul-13 21:29N 39°17' E 025°22'0 0.0
2014-Jul-13 20:29N 39°17' E 025°22'0 0.0
2014-Jul-13 17:32N 39°17' E 025°22'0 0.0
2014-Jul-13 16:32N 39°17' E 025°22'  

Dump ship's entire track history